sensor_id;sensor_type;location;lat;lon;timestamp;temperature;humidity
64670;DHT22;51080;51.690;5.174;2022-11-11T00:03:06;10.10;84.90
64670;DHT22;51080;51.690;5.174;2022-11-11T00:08:58;10.20;84.90
64670;DHT22;51080;51.690;5.174;2022-11-11T00:27:35;10.20;84.80
64670;DHT22;51080;51.690;5.174;2022-11-11T00:33:30;10.30;84.40
64670;DHT22;51080;51.690;5.174;2022-11-11T00:45:43;10.20;84.90
64670;DHT22;51080;51.690;5.174;2022-11-11T01:10:44;10.50;84.20
64670;DHT22;51080;51.690;5.174;2022-11-11T01:16:37;10.60;83.60
64670;DHT22;51080;51.690;5.174;2022-11-11T01:22:27;10.60;83.90
64670;DHT22;51080;51.690;5.174;2022-11-11T01:40:48;10.60;84.00
64670;DHT22;51080;51.690;5.174;2022-11-11T02:06:24;10.70;83.70
64670;DHT22;51080;51.690;5.174;2022-11-11T02:18:41;10.60;83.60
64670;DHT22;51080;51.690;5.174;2022-11-11T02:24:34;10.60;83.90
64670;DHT22;51080;51.690;5.174;2022-11-11T02:43:12;10.50;84.30
64670;DHT22;51080;51.690;5.174;2022-11-11T03:33:49;10.40;84.00
64670;DHT22;51080;51.690;5.174;2022-11-11T04:30:39;10.20;83.60
64670;DHT22;51080;51.690;5.174;2022-11-11T04:42:55;10.00;83.80
64670;DHT22;51080;51.690;5.174;2022-11-11T05:07:56;9.90;84.20
64670;DHT22;51080;51.690;5.174;2022-11-11T05:58:09;9.60;84.50
64670;DHT22;51080;51.690;5.174;2022-11-11T06:04:12;9.60;84.10
64670;DHT22;51080;51.690;5.174;2022-11-11T06:10:15;9.70;83.70
64670;DHT22;51080;51.690;5.174;2022-11-11T06:16:11;9.50;84.40
64670;DHT22;51080;51.690;5.174;2022-11-11T06:22:01;9.50;83.90
64670;DHT22;51080;51.690;5.174;2022-11-11T06:27:51;9.40;84.30
64670;DHT22;51080;51.690;5.174;2022-11-11T06:33:40;9.30;84.60
64670;DHT22;51080;51.690;5.174;2022-11-11T06:39:28;9.20;85.00
64670;DHT22;51080;51.690;5.174;2022-11-11T06:45:20;9.20;85.20
64670;DHT22;51080;51.690;5.174;2022-11-11T06:51:05;9.10;85.00
64670;DHT22;51080;51.690;5.174;2022-11-11T06:57:22;9.20;84.40
64670;DHT22;51080;51.690;5.174;2022-11-11T07:03:08;9.10;85.60
64670;DHT22;51080;51.690;5.174;2022-11-11T07:08:53;9.10;85.00
64670;DHT22;51080;51.690;5.174;2022-11-11T07:14:36;9.00;85.40
64670;DHT22;51080;51.690;5.174;2022-11-11T07:20:19;9.00;85.50
64670;DHT22;51080;51.690;5.174;2022-11-11T07:26:03;9.00;85.60
64670;DHT22;51080;51.690;5.174;2022-11-11T07:31:46;9.00;85.50
64670;DHT22;51080;51.690;5.174;2022-11-11T07:37:30;9.00;85.30
64670;DHT22;51080;51.690;5.174;2022-11-11T07:43:14;9.00;85.20
64670;DHT22;51080;51.690;5.174;2022-11-11T07:48:58;9.10;85.70
64670;DHT22;51080;51.690;5.174;2022-11-11T07:54:42;9.10;85.20
64670;DHT22;51080;51.690;5.174;2022-11-11T08:00:26;9.20;85.40
64670;DHT22;51080;51.690;5.174;2022-11-11T08:06:10;9.20;85.20
64670;DHT22;51080;51.690;5.174;2022-11-11T08:11:52;9.20;85.20
64670;DHT22;51080;51.690;5.174;2022-11-11T08:17:37;9.30;84.80
64670;DHT22;51080;51.690;5.174;2022-11-11T08:23:21;9.20;84.90
64670;DHT22;51080;51.690;5.174;2022-11-11T08:29:35;9.30;84.50
64670;DHT22;51080;51.690;5.174;2022-11-11T08:35:19;9.20;84.70
64670;DHT22;51080;51.690;5.174;2022-11-11T08:41:05;9.20;84.40
64670;DHT22;51080;51.690;5.174;2022-11-11T08:46:49;9.20;85.00
64670;DHT22;51080;51.690;5.174;2022-11-11T08:52:32;9.30;84.60
64670;DHT22;51080;51.690;5.174;2022-11-11T08:58:46;9.40;84.20
64670;DHT22;51080;51.690;5.174;2022-11-11T09:04:31;9.40;83.70
64670;DHT22;51080;51.690;5.174;2022-11-11T09:10:14;9.40;83.50
64670;DHT22;51080;51.690;5.174;2022-11-11T09:15:57;9.50;83.40
64670;DHT22;51080;51.690;5.174;2022-11-11T09:21:40;9.50;83.20
64670;DHT22;51080;51.690;5.174;2022-11-11T09:27:24;9.60;83.40
64670;DHT22;51080;51.690;5.174;2022-11-11T09:33:08;9.70;83.10
64670;DHT22;51080;51.690;5.174;2022-11-11T09:38:52;9.70;83.00
64670;DHT22;51080;51.690;5.174;2022-11-11T09:51:27;9.80;82.60
64670;DHT22;51080;51.690;5.174;2022-11-11T09:57:18;9.80;82.50
64670;DHT22;51080;51.690;5.174;2022-11-11T10:03:19;9.90;82.70
64670;DHT22;51080;51.690;5.174;2022-11-11T10:09:40;10.00;82.30
64670;DHT22;51080;51.690;5.174;2022-11-11T10:15:29;10.10;82.30
64670;DHT22;51080;51.690;5.174;2022-11-11T10:21:25;10.20;82.30
64670;DHT22;51080;51.690;5.174;2022-11-11T10:27:19;10.30;81.80
64670;DHT22;51080;51.690;5.174;2022-11-11T10:33:09;10.40;81.60
64670;DHT22;51080;51.690;5.174;2022-11-11T10:39:00;10.50;81.10
64670;DHT22;51080;51.690;5.174;2022-11-11T10:44:45;10.60;81.10
64670;DHT22;51080;51.690;5.174;2022-11-11T10:50:43;10.80;81.00
64670;DHT22;51080;51.690;5.174;2022-11-11T11:02:28;11.10;80.30
64670;DHT22;51080;51.690;5.174;2022-11-11T11:08:20;11.30;80.10
64670;DHT22;51080;51.690;5.174;2022-11-11T11:14:20;11.50;79.70
64670;DHT22;51080;51.690;5.174;2022-11-11T11:20:14;11.60;78.90
64670;DHT22;51080;51.690;5.174;2022-11-11T11:25:57;11.80;78.70
64670;DHT22;51080;51.690;5.174;2022-11-11T11:31:41;12.00;78.10
64670;DHT22;51080;51.690;5.174;2022-11-11T11:37:25;12.10;77.40
64670;DHT22;51080;51.690;5.174;2022-11-11T11:43:39;12.40;76.50
64670;DHT22;51080;51.690;5.174;2022-11-11T11:55:37;12.80;73.60
64670;DHT22;51080;51.690;5.174;2022-11-11T12:08:20;13.60;72.10
64670;DHT22;51080;51.690;5.174;2022-11-11T12:14:28;14.00;72.70
64670;DHT22;51080;51.690;5.174;2022-11-11T12:20:24;14.30;70.30
64670;DHT22;51080;51.690;5.174;2022-11-11T12:26:22;14.30;69.80
64670;DHT22;51080;51.690;5.174;2022-11-11T12:32:31;14.30;69.70
64670;DHT22;51080;51.690;5.174;2022-11-11T12:38:39;14.40;69.90
64670;DHT22;51080;51.690;5.174;2022-11-11T12:51:52;14.60;66.80
64670;DHT22;51080;51.690;5.174;2022-11-11T13:10:01;14.50;67.90
64670;DHT22;51080;51.690;5.174;2022-11-11T13:15:48;14.60;67.50
64670;DHT22;51080;51.690;5.174;2022-11-11T13:27:45;14.40;67.00
64670;DHT22;51080;51.690;5.174;2022-11-11T13:34:05;14.50;67.30
64670;DHT22;51080;51.690;5.174;2022-11-11T13:39:56;14.50;65.70
64670;DHT22;51080;51.690;5.174;2022-11-11T13:45:51;14.50;67.00
64670;DHT22;51080;51.690;5.174;2022-11-11T13:51:42;14.50;67.10
64670;DHT22;51080;51.690;5.174;2022-11-11T13:57:27;14.40;66.40
64670;DHT22;51080;51.690;5.174;2022-11-11T14:09:07;14.20;67.50
64670;DHT22;51080;51.690;5.174;2022-11-11T14:14:56;14.20;68.30
64670;DHT22;51080;51.690;5.174;2022-11-11T14:20:42;14.10;69.20
64670;DHT22;51080;51.690;5.174;2022-11-11T14:26:27;14.00;68.10
64670;DHT22;51080;51.690;5.174;2022-11-11T14:38:52;13.90;69.90
64670;DHT22;51080;51.690;5.174;2022-11-11T14:44:40;13.80;70.00
64670;DHT22;51080;51.690;5.174;2022-11-11T14:56:21;13.70;70.60
64670;DHT22;51080;51.690;5.174;2022-11-11T15:02:17;13.60;71.10
64670;DHT22;51080;51.690;5.174;2022-11-11T15:08:20;13.40;71.30
64670;DHT22;51080;51.690;5.174;2022-11-11T15:14:24;13.30;71.70
64670;DHT22;51080;51.690;5.174;2022-11-11T15:26:29;13.00;72.50
64670;DHT22;51080;51.690;5.174;2022-11-11T15:32:30;12.80;72.60
64670;DHT22;51080;51.690;5.174;2022-11-11T15:38:16;12.60;72.80
64670;DHT22;51080;51.690;5.174;2022-11-11T15:44:00;12.40;73.10
64670;DHT22;51080;51.690;5.174;2022-11-11T15:49:46;12.30;73.30
64670;DHT22;51080;51.690;5.174;2022-11-11T15:55:32;12.10;73.60
64670;DHT22;51080;51.690;5.174;2022-11-11T16:01:24;11.90;73.90
64670;DHT22;51080;51.690;5.174;2022-11-11T16:07:15;11.70;74.10
64670;DHT22;51080;51.690;5.174;2022-11-11T16:13:18;11.50;74.30
64670;DHT22;51080;51.690;5.174;2022-11-11T16:19:20;11.40;74.50
64670;DHT22;51080;51.690;5.174;2022-11-11T16:24:56;11.20;74.80
64670;DHT22;51080;51.690;5.174;2022-11-11T16:30:40;11.10;75.10
64670;DHT22;51080;51.690;5.174;2022-11-11T16:36:23;10.90;75.30
64670;DHT22;51080;51.690;5.174;2022-11-11T16:42:22;10.80;75.60
64670;DHT22;51080;51.690;5.174;2022-11-11T16:54:14;10.60;75.90
64670;DHT22;51080;51.690;5.174;2022-11-11T17:00:02;10.50;76.20
64670;DHT22;51080;51.690;5.174;2022-11-11T17:05:52;10.40;76.30
64670;DHT22;51080;51.690;5.174;2022-11-11T17:11:44;10.20;76.40
64670;DHT22;51080;51.690;5.174;2022-11-11T17:17:29;10.10;76.40
64670;DHT22;51080;51.690;5.174;2022-11-11T17:23:15;10.00;76.70
64670;DHT22;51080;51.690;5.174;2022-11-11T17:29:04;9.90;77.00
64670;DHT22;51080;51.690;5.174;2022-11-11T17:34:52;9.80;77.10
64670;DHT22;51080;51.690;5.174;2022-11-11T17:40:43;9.70;77.10
64670;DHT22;51080;51.690;5.174;2022-11-11T17:46:33;9.60;77.30
64670;DHT22;51080;51.690;5.174;2022-11-11T17:52:21;9.50;77.50
64670;DHT22;51080;51.690;5.174;2022-11-11T17:58:13;9.50;78.00
64670;DHT22;51080;51.690;5.174;2022-11-11T18:04:18;9.40;77.90
64670;DHT22;51080;51.690;5.174;2022-11-11T18:10:21;9.30;78.20
64670;DHT22;51080;51.690;5.174;2022-11-11T18:16:15;9.30;78.10
64670;DHT22;51080;51.690;5.174;2022-11-11T18:22:07;9.30;78.00
64670;DHT22;51080;51.690;5.174;2022-11-11T18:27:56;9.20;78.20
64670;DHT22;51080;51.690;5.174;2022-11-11T18:33:46;9.20;78.10
64670;DHT22;51080;51.690;5.174;2022-11-11T18:39:36;9.10;78.20
64670;DHT22;51080;51.690;5.174;2022-11-11T18:45:29;9.00;78.30
64670;DHT22;51080;51.690;5.174;2022-11-11T18:51:22;9.00;78.40
64670;DHT22;51080;51.690;5.174;2022-11-11T18:57:14;8.90;78.40
64670;DHT22;51080;51.690;5.174;2022-11-11T19:03:04;8.80;78.60
64670;DHT22;51080;51.690;5.174;2022-11-11T19:08:58;8.80;79.10
64670;DHT22;51080;51.690;5.174;2022-11-11T19:14:46;8.70;78.80
64670;DHT22;51080;51.690;5.174;2022-11-11T19:20:36;8.70;78.90
64670;DHT22;51080;51.690;5.174;2022-11-11T19:26:30;8.60;78.80
64670;DHT22;51080;51.690;5.174;2022-11-11T19:32:21;8.50;78.80
64670;DHT22;51080;51.690;5.174;2022-11-11T19:38:09;8.50;78.80
64670;DHT22;51080;51.690;5.174;2022-11-11T19:44:02;8.40;78.80
64670;DHT22;51080;51.690;5.174;2022-11-11T19:49:53;8.30;79.00
64670;DHT22;51080;51.690;5.174;2022-11-11T19:55:42;8.30;79.00
64670;DHT22;51080;51.690;5.174;2022-11-11T20:01:31;8.20;79.20
64670;DHT22;51080;51.690;5.174;2022-11-11T20:07:20;8.10;79.20
64670;DHT22;51080;51.690;5.174;2022-11-11T20:13:09;8.10;79.30
64670;DHT22;51080;51.690;5.174;2022-11-11T20:19:00;8.10;79.40
64670;DHT22;51080;51.690;5.174;2022-11-11T20:24:52;8.00;79.50
64670;DHT22;51080;51.690;5.174;2022-11-11T20:30:44;8.00;79.50
64670;DHT22;51080;51.690;5.174;2022-11-11T20:36:37;7.90;79.50
64670;DHT22;51080;51.690;5.174;2022-11-11T20:42:42;7.80;79.60
64670;DHT22;51080;51.690;5.174;2022-11-11T20:48:34;7.80;79.70
64670;DHT22;51080;51.690;5.174;2022-11-11T20:54:27;7.80;79.70
64670;DHT22;51080;51.690;5.174;2022-11-11T21:00:19;7.70;79.70
64670;DHT22;51080;51.690;5.174;2022-11-11T21:06:15;7.70;79.70
64670;DHT22;51080;51.690;5.174;2022-11-11T21:12:10;7.60;79.70
64670;DHT22;51080;51.690;5.174;2022-11-11T21:18:12;7.50;79.70
64670;DHT22;51080;51.690;5.174;2022-11-11T21:24:07;7.50;79.80
64670;DHT22;51080;51.690;5.174;2022-11-11T21:29:59;7.50;79.80
64670;DHT22;51080;51.690;5.174;2022-11-11T21:35:50;7.40;79.80
64670;DHT22;51080;51.690;5.174;2022-11-11T21:41:54;7.40;79.90
64670;DHT22;51080;51.690;5.174;2022-11-11T21:47:58;7.30;80.20
64670;DHT22;51080;51.690;5.174;2022-11-11T21:54:08;7.60;80.90
64670;DHT22;51080;51.690;5.174;2022-11-11T22:00:14;7.60;80.50
64670;DHT22;51080;51.690;5.174;2022-11-11T22:06:19;7.50;80.00
64670;DHT22;51080;51.690;5.174;2022-11-11T22:12:23;7.50;79.90
64670;DHT22;51080;51.690;5.174;2022-11-11T22:18:22;7.40;79.70
64670;DHT22;51080;51.690;5.174;2022-11-11T22:24:10;7.30;79.70
64670;DHT22;51080;51.690;5.174;2022-11-11T22:29:57;7.20;79.70
64670;DHT22;51080;51.690;5.174;2022-11-11T22:35:44;7.20;79.60
64670;DHT22;51080;51.690;5.174;2022-11-11T22:41:34;7.00;79.70
64670;DHT22;51080;51.690;5.174;2022-11-11T22:47:22;7.00;79.80
64670;DHT22;51080;51.690;5.174;2022-11-11T22:53:09;6.90;79.80
64670;DHT22;51080;51.690;5.174;2022-11-11T22:58:57;6.80;79.90
64670;DHT22;51080;51.690;5.174;2022-11-11T23:04:46;6.80;80.20
64670;DHT22;51080;51.690;5.174;2022-11-11T23:10:33;6.70;80.30
64670;DHT22;51080;51.690;5.174;2022-11-11T23:16:21;6.70;80.20
64670;DHT22;51080;51.690;5.174;2022-11-11T23:22:09;6.60;80.30
64670;DHT22;51080;51.690;5.174;2022-11-11T23:27:56;6.60;80.40
64670;DHT22;51080;51.690;5.174;2022-11-11T23:33:47;6.60;80.40
64670;DHT22;51080;51.690;5.174;2022-11-11T23:39:38;6.50;80.30
64670;DHT22;51080;51.690;5.174;2022-11-11T23:45:25;6.50;80.40
64670;DHT22;51080;51.690;5.174;2022-11-11T23:51:12;6.50;80.30
64670;DHT22;51080;51.690;5.174;2022-11-11T23:57:00;6.40;80.30
